地図

経路データ

SID SEASON NUMBER BASIN SUBBASIN NAME ISO_TIME NATURE LAT LON WMO_WIND WMO_PRES WMO_AGENCY TRACK_TYPE DIST2LAND LANDFALL IFLAG USA_AGENCY USA_ATCF_ID USA_LAT USA_LON USA_RECORD USA_STATUS USA_WIND USA_PRES USA_SSHS USA_R34_NE USA_R34_SE USA_R34_SW USA_R34_NW USA_R50_NE USA_R50_SE USA_R50_SW USA_R50_NW USA_R64_NE USA_R64_SE USA_R64_SW USA_R64_NW USA_POCI USA_ROCI USA_RMW USA_EYE TOKYO_LAT TOKYO_LON TOKYO_GRADE TOKYO_WIND TOKYO_PRES TOKYO_R50_DIR TOKYO_R50_LONG TOKYO_R50_SHORT TOKYO_R30_DIR TOKYO_R30_LONG TOKYO_R30_SHORT TOKYO_LAND CMA_LAT CMA_LON CMA_CAT CMA_WIND CMA_PRES HKO_LAT HKO_LON HKO_CAT HKO_WIND HKO_PRES NEWDELHI_LAT NEWDELHI_LON NEWDELHI_GRADE NEWDELHI_WIND NEWDELHI_PRES NEWDELHI_CI NEWDELHI_DP NEWDELHI_POCI REUNION_LAT REUNION_LON REUNION_TYPE REUNION_WIND REUNION_PRES REUNION_TNUM REUNION_CI REUNION_RMW REUNION_R34_NE REUNION_R34_SE REUNION_R34_SW REUNION_R34_NW REUNION_R50_NE REUNION_R50_SE REUNION_R50_SW REUNION_R50_NW REUNION_R64_NE REUNION_R64_SE REUNION_R64_SW REUNION_R64_NW BOM_LAT BOM_LON BOM_TYPE BOM_WIND BOM_PRES BOM_TNUM BOM_CI BOM_RMW BOM_R34_NE BOM_R34_SE BOM_R34_SW BOM_R34_NW BOM_R50_NE BOM_R50_SE BOM_R50_SW BOM_R50_NW BOM_R64_NE BOM_R64_SE BOM_R64_SW BOM_R64_NW BOM_ROCI BOM_POCI BOM_EYE BOM_POS_METHOD BOM_PRES_METHOD NADI_LAT NADI_LON NADI_CAT NADI_WIND NADI_PRES WELLINGTON_LAT WELLINGTON_LON WELLINGTON_WIND WELLINGTON_PRES DS824_LAT DS824_LON DS824_STAGE DS824_WIND DS824_PRES TD9636_LAT TD9636_LON TD9636_STAGE TD9636_WIND TD9636_PRES TD9635_LAT TD9635_LON TD9635_WIND TD9635_PRES TD9635_ROCI NEUMANN_LAT NEUMANN_LON NEUMANN_CLASS NEUMANN_WIND NEUMANN_PRES MLC_LAT MLC_LON MLC_CLASS MLC_WIND MLC_PRES USA_GUST BOM_GUST BOM_GUST_PER REUNION_GUST REUNION_GUST_PER USA_SEAHGT USA_SEARAD_NE USA_SEARAD_SE USA_SEARAD_SW USA_SEARAD_NW STORM_SPEED STORM_DIR
1916240N14312 1916 44 NA NA NOT_NAMED 1916-08-27 06:00:00 TS 14.0000 -47.6000 60 hurdat_atl main 1127 1087 O_____________ hurdat_atl AL081916 14.0000 -47.6000 TS 60 0 16 268
1916240N14312 1916 44 NA NA NOT_NAMED 1916-08-27 09:00:00 TS 13.9730 -48.4327 main 1087 1047 P_____________ AL081916 13.9730 -48.4327 TS 60 0 17 270
1916240N14312 1916 44 NA NA NOT_NAMED 1916-08-27 12:00:00 TS 14.0000 -49.3000 60 hurdat_atl main 1047 1017 O_____________ hurdat_atl AL081916 14.0000 -49.3000 TS 60 0 17 275
1916240N14312 1916 44 NA NA NOT_NAMED 1916-08-27 15:00:00 TS 14.1197 -50.2275 main 1017 997 P_____________ AL081916 14.1197 -50.2275 TS 62 0 19 279
1916240N14312 1916 44 NA NA NOT_NAMED 1916-08-27 18:00:00 TS 14.3000 -51.2000 65 hurdat_atl main 996 982 O_____________ hurdat_atl AL081916 14.3000 -51.2000 HU 65 1 19 281
1916240N14312 1916 44 NA NA NOT_NAMED 1916-08-27 21:00:00 TS 14.4922 -52.1926 main 987 967 P_____________ AL081916 14.4922 -52.1926 HU 65 1 20 282
1916240N14312 1916 44 NA NA NOT_NAMED 1916-08-28 00:00:00 TS 14.7000 -53.2000 65 hurdat_atl main 957 883 O_____________ hurdat_atl AL081916 14.7000 -53.2000 HU 65 1 20 282
1916240N14312 1916 44 NA NA NOT_NAMED 1916-08-28 03:00:00 TS 14.9146 -54.2000 main 874 807 P_____________ AL081916 14.9146 -54.2000 HU 67 1 20 282
1916240N14312 1916 44 NA NA NOT_NAMED 1916-08-28 06:00:00 TS 15.1000 -55.2000 70 hurdat_atl main 798 732 O_____________ hurdat_atl AL081916 15.1000 -55.2000 HU 70 1 19 279
1916240N14312 1916 44 NA NA NOT_NAMED 1916-08-28 09:00:00 TS 15.2219 -56.1852 main 724 666 P_____________ AL081916 15.2219 -56.1852 HU 70 1 19 276
1916240N14312 1916 44 NA NA NOT_NAMED 1916-08-28 12:00:00 TS 15.3000 -57.2000 70 hurdat_atl main 659 603 O_____________ hurdat_atl AL081916 15.3000 -57.2000 HU 70 1 20 274
1916240N14312 1916 44 NA NA NOT_NAMED 1916-08-28 15:00:00 TS 15.3572 -58.2852 main 602 557 P_____________ AL081916 15.3572 -58.2852 HU 70 1 21 273
1916240N14312 1916 44 NA NA NOT_NAMED 1916-08-28 18:00:00 TS 15.4000 -59.4000 70 hurdat_atl main 554 530 O_____________ hurdat_atl AL081916 15.4000 -59.4000 HU 70 1 21 272
1916240N14312 1916 44 NA CS NOT_NAMED 1916-08-28 21:00:00 TS 15.4495 -60.5001 main 529 529 P_____________ AL081916 15.4495 -60.5001 HU 70 1 21 273
1916240N14312 1916 44 NA CS NOT_NAMED 1916-08-29 00:00:00 TS 15.5000 -61.6000 70 986 hurdat_atl main 522 431 O_____________ hurdat_atl AL081916 15.5000 -61.6000 HU 70 986 1 21 273
1916240N14312 1916 44 NA CS NOT_NAMED 1916-08-29 03:00:00 TS 15.5570 -62.6999 main 424 349 P_____________ AL081916 15.5570 -62.6999 HU 70 1 21 273
1916240N14312 1916 44 NA CS NOT_NAMED 1916-08-29 06:00:00 TS 15.6000 -63.8000 70 hurdat_atl main 342 288 O_____________ hurdat_atl AL081916 15.6000 -63.8000 HU 70 1 21 271
1916240N14312 1916 44 NA CS NOT_NAMED 1916-08-29 09:00:00 TS 15.5996 -64.9077 main 285 259 P_____________ AL081916 15.5996 -64.9077 HU 70 1 21 270
1916240N14312 1916 44 NA CS NOT_NAMED 1916-08-29 12:00:00 TS 15.6000 -66.0000 70 hurdat_atl main 258 257 O_____________ hurdat_atl AL081916 15.6000 -66.0000 HU 70 1 21 271
1916240N14312 1916 44 NA CS NOT_NAMED 1916-08-29 15:00:00 TS 15.6344 -67.0575 main 257 247 P_____________ AL081916 15.6344 -67.0575 HU 70 1 20 273
1916240N14312 1916 44 NA CS NOT_NAMED 1916-08-29 18:00:00 TS 15.7000 -68.1000 70 hurdat_atl main 264 264 O_____________ hurdat_atl AL081916 15.7000 -68.1000 HU 70 1 20 275
1916240N14312 1916 44 NA CS NOT_NAMED 1916-08-29 21:00:00 TS 15.7996 -69.1573 main 271 235 P_____________ AL081916 15.7996 -69.1573 HU 70 1 20 276
1916240N14312 1916 44 NA CS NOT_NAMED 1916-08-30 00:00:00 TS 15.9000 -70.2000 70 hurdat_atl main 229 191 O_____________ hurdat_atl AL081916 15.9000 -70.2000 HU 70 1 20 274
1916240N14312 1916 44 NA CS NOT_NAMED 1916-08-30 03:00:00 TS 15.9494 -71.2078 main 191 179 P_____________ AL081916 15.9494 -71.2078 HU 67 1 19 273
1916240N14312 1916 44 NA CS NOT_NAMED 1916-08-30 06:00:00 TS 16.0000 -72.2000 65 hurdat_atl main 198 198 O_____________ hurdat_atl AL081916 16.0000 -72.2000 HU 65 1 19 274
1916240N14312 1916 44 NA CS NOT_NAMED 1916-08-30 09:00:00 TS 16.0770 -73.2002 main 221 201 P_____________ AL081916 16.0770 -73.2002 HU 62 0 19 276
1916240N14312 1916 44 NA CS NOT_NAMED 1916-08-30 12:00:00 TS 16.2000 -74.2000 60 hurdat_atl main 203 200 O_____________ hurdat_atl AL081916 16.2000 -74.2000 TS 60 0 19 280
1916240N14312 1916 44 NA CS NOT_NAMED 1916-08-30 15:00:00 TS 16.3995 -75.1997 main 198 145 P_____________ AL081916 16.3995 -75.1997 TS 57 0 20 282
1916240N14312 1916 44 NA CS NOT_NAMED 1916-08-30 18:00:00 TS 16.6000 -76.2000 55 hurdat_atl main 145 111 O_____________ hurdat_atl AL081916 16.6000 -76.2000 TS 55 0 20 279
1916240N14312 1916 44 NA CS NOT_NAMED 1916-08-30 21:00:00 TS 16.7146 -77.2078 main 111 109 P_____________ AL081916 16.7146 -77.2078 TS 52 0 19 276
1916240N14312 1916 44 NA CS NOT_NAMED 1916-08-31 00:00:00 TS 16.8000 -78.2000 50 hurdat_atl main 134 134 O_____________ hurdat_atl AL081916 16.8000 -78.2000 TS 50 0 19 275
1916240N14312 1916 44 NA CS NOT_NAMED 1916-08-31 03:00:00 TS 16.8845 -79.1578 main 168 168 P_____________ AL081916 16.8845 -79.1578 TS 47 0 18 276
1916240N14312 1916 44 NA CS NOT_NAMED 1916-08-31 06:00:00 TS 17.0000 -80.1000 45 hurdat_atl main 224 224 O_____________ hurdat_atl AL081916 17.0000 -80.1000 TS 45 0 19 279
1916240N14312 1916 44 NA CS NOT_NAMED 1916-08-31 09:00:00 TS 17.1927 -81.1022 main 307 278 P_____________ AL081916 17.1927 -81.1022 TS 42 0 19 282
1916240N14312 1916 44 NA CS NOT_NAMED 1916-08-31 12:00:00 TS 17.4000 -82.0000 40 hurdat_atl main 278 259 O_____________ hurdat_atl AL081916 17.4000 -82.0000 TS 40 0 15 284
1916240N14312 1916 44 NA CS NOT_NAMED 1916-08-31 15:00:00 TS 17.5568 -82.6603 main 263 242 P_____________ AL081916 17.5568 -82.6603 TS 40 0 12 285
1916240N14312 1916 44 NA CS NOT_NAMED 1916-08-31 18:00:00 TS 17.7000 -83.2000 40 hurdat_atl main 242 232 O_____________ hurdat_atl AL081916 17.7000 -83.2000 TS 40 0 11 286
1916240N14312 1916 44 NA CS NOT_NAMED 1916-08-31 21:00:00 TS 17.8648 -83.7575 main 240 232 P_____________ AL081916 17.8648 -83.7575 TS 40 0 11 286
1916240N14312 1916 44 NA CS NOT_NAMED 1916-09-01 00:00:00 TS 18.0000 -84.3000 40 hurdat_atl main 238 235 O_____________ hurdat_atl AL081916 18.0000 -84.3000 TS 40 0 11 281
1916240N14312 1916 44 NA CS NOT_NAMED 1916-09-01 03:00:00 TS 18.0648 -84.8502 main 246 246 P_____________ AL081916 18.0648 -84.8502 TS 42 0 11 275
1916240N14312 1916 44 NA CS NOT_NAMED 1916-09-01 06:00:00 TS 18.1000 -85.4000 45 hurdat_atl main 246 195 O_____________ hurdat_atl AL081916 18.1000 -85.4000 TS 45 0 11 275
1916240N14312 1916 44 NA CS NOT_NAMED 1916-09-01 09:00:00 TS 18.1648 -85.9499 main 195 134 P_____________ AL081916 18.1648 -85.9499 TS 47 0 11 275
1916240N14312 1916 44 NA CS NOT_NAMED 1916-09-01 12:00:00 TS 18.2000 -86.5000 50 hurdat_atl main 134 84 O_____________ hurdat_atl AL081916 18.2000 -86.5000 TS 50 0 10 270
1916240N14312 1916 44 NA CS NOT_NAMED 1916-09-01 15:00:00 TS 18.1723 -87.0500 main 73 23 P_____________ AL081916 18.1723 -87.0500 TS 50 0 11 265
1916240N14312 1916 44 NA CS NOT_NAMED 1916-09-01 18:00:00 TS 18.1000 -87.6000 50 hurdat_atl main 23 10 O_____________ hurdat_atl AL081916 18.1000 -87.6000 TS 50 0 11 262
1916240N14312 1916 44 NA CS NOT_NAMED 1916-09-01 21:00:00 TS 18.0223 -88.1499 main 10 0 P_____________ AL081916 18.0223 -88.1499 TS 45 0 11 259
1916240N14312 1916 44 NA NA NOT_NAMED 1916-09-02 00:00:00 TS 17.9000 -88.7000 40 hurdat_atl main 0 0 O_____________ hurdat_atl AL081916 17.9000 -88.7000 TS 40 0 11 254
1916240N14312 1916 44 NA NA NOT_NAMED 1916-09-02 03:00:00 TS 17.7223 -89.2424 main 0 0 P_____________ AL081916 17.7223 -89.2424 TS 37 0 11 249
1916240N14312 1916 44 NA NA NOT_NAMED 1916-09-02 06:00:00 TS 17.5000 -89.8000 35 hurdat_atl main 0 0 O_____________ hurdat_atl AL081916 17.5000 -89.8000 TS 35 0 12 247
1916240N14312 1916 44 NA NA NOT_NAMED 1916-09-02 09:00:00 TS 17.2554 -90.3903 main 0 0 P_____________ AL081916 17.2554 -90.3903 TS 32 -1 13 246
1916240N14312 1916 44 NA NA NOT_NAMED 1916-09-02 12:00:00 TS 17.0000 -91.0000 30 hurdat_atl main 0 O_____________ hurdat_atl AL081916 17.0000 -91.0000 TD 30 -1 13 246

IBTrACS Databaseについて

本データベースは、米国NOAAが公開する1842年以降の世界の熱帯低気圧のベストトラックデータアーカイブInternational Best Track Archive for Climate Stewardship (IBTrACS)を、ウェブで閲覧しやすい形式に変換したものです。

最終更新日:2021-10-25